Portada
METAR-TAF:

METAR-TAF

Aeroports :

Bukoba, Tanzània

latitud: 01-20S, longitud: 031-49E, altitud: 1137 m

Observació

L'informe es va fer fa 1 hora i 16 minuts, a les 20:00 UTC
Vent calma
Temperatura 20°C
Humitat 83%
Pressió 1018 hPa
Visibilitat 10 km o més
sense núvols per sota de 1500 mi sense presència de cumulonimbus.

METAR: HTBU 062000Z 00000KT CAVOK 20/17 Q1018

Hora: 00:16 (21:16 UTC)


TAF: manca

Observacions i pronòstics meteorològics de més de 4000 aeroports (METAR i TAF).

Les estacions disponibles són els punts grocs i vermells al mapa.

Posi el ratolí al punt desitjat per veure el nom de l'estació.

Feu clic per veure les observacions i els pronòstics meteorològics.

Per canviar el mapa: feu clic els botons verds amb una creu de color negre per apropar; al botó verd amb un guió per allunyar la imatge; o en les fletxes verdes per a mapes adjacents.


METAR-TAF: